Tiempo atmosférico en la estación meteorológica de Murcia, Murcia (61 m.)



Fecha
DESCASC
Temp. máxima en grados centígrados (hora)
DESCASC
Temp. mínima en grados centígrados (hora)
DESCASC
Temp. media en grados centígrados
DESCASC
Racha de viento máxima en m/sg (hora)
DESCASC
Velocidad máxima media en intervalos de 10 minutos(hora)
DESCASC
Precipitaciones diarias en mm
DESCASC
Precipitaciones de 00:00 a 06:00 en mm
DESCASC
Precipitaciones de 06:00 a 12:00 en mm
DESCASC
Precipitaciones de 12:00 a 18:00 en mm
DESCASC
Precipitaciones de 18:00 a 24:00 en mm
DESCASC
31-03-2020 18.9 (17:20) 11.4 (07:20) 15.1 8.33 (00:20) 5 (00:20) 2.6 0 2.6 0 0
30-03-2020 18.5 (13:50) 9.2 (06:50) 13.8 11.11 (15:40) 6.67 (17:50) 0 0 0 0 0
29-03-2020 22.7 (17:40) 6.1 (00:00) 14.4 7.78 (18:50) 4.17 (18:50) 0 0 0 0 0
28-03-2020 18.5 (15:30) 8.1 (00:00) 13.3 8.61 (15:40) 5 (05:20) 1.4 1.4 0 0 0
27-03-2020 11.8 (00:00) 9.2 (00:00) 10.5 8.89 (17:30) 5.56 (17:10) 6 0 0 0.2 5.8
26-03-2020 20.7 (16:40) 8.3 (00:00) 14.5 9.44 (16:00) 5.83 (18:30) 0.8 0.8 0 0 0
25-03-2020 14.9 (11:10) 9.6 (00:00) 12.3 6.94 (15:30) 4.72 (15:30) 1.6 0 0 0 1.6
24-03-2020 13.5 (14:10) 11.2 (00:00) 12.3 15.83 (12:00) 9.17 (12:10) 66.6 42.8 17.2 4.4 2.2
23-03-2020 17.5 (14:50) 9.7 (00:00) 13.6 11.11 (15:30) 6.67 (20:30) 14.2 0 1.2 5.8 7.2
22-03-2020 13.9 (13:30) 8.3 (06:10) 11.1 6.11 (16:50) 3.89 (16:50) 5.6 0 0.2 5.4 0
21-03-2020 16.8 (10:50) 9.6 (00:00) 13.2 10 (17:20) 6.11 (17:20) 16.8 0 0 13 3.8
20-03-2020 17.5 (15:50) 9.8 (00:00) 13.7 7.5 (12:40) 4.72 (17:50) 0 0 0 0 0
19-03-2020 18.9 (14:50) 11.9 (00:00) 15.4 10 (13:40) 6.11 (13:30) 0 0 0 0 0
18-03-2020 20.2 (14:30) 11 (00:00) 15.6 10.83 (13:10) 7.22 (15:50) 0 0 0 0 0
17-03-2020 17.3 (14:00) 7.4 (00:00) 12.3 8.89 (21:20) 5.28 (21:10) 0 0 0 0 0
16-03-2020 17 (11:30) 8.3 (00:00) 12.7 12.5 (12:40) 8.06 (12:40) 7.3 0.4 0 6.7 0.2
15-03-2020 21 (14:10) 12.9 (00:00) 16.9 8.61 (14:40) 5.56 (15:50) 0 0 0 0 0
14-03-2020 23.7 (15:20) 10.5 (00:00) 17.1 7.5 (16:00) 4.44 (17:20) 0 0 0 0 0
13-03-2020 24.9 (13:20) 10.7 (07:20) 17.8 9.17 (14:40) 5.83 (15:00) 0 0 0 0 0
12-03-2020 28.5 (15:30) 10.9 (00:00) 19.7 7.78 (14:20) 4.44 (16:50) 0 0 0 0 0
11-03-2020 31.9 (15:50) 10.6 (00:00) 21.3 7.22 (18:10) 5 (18:10) 0 0 0 0 0
10-03-2020 25.7 (15:50) 12.9 (00:00) 19.3 11.67 (01:30) 6.39 (01:20) 0 0 0 0 0
09-03-2020 25.6 (16:10) 12.9 (00:00) 19.3 11.39 (06:10) 7.5 (06:10) 0 0 0 0 0
08-03-2020 25.4 (16:20) 6.5 (00:00) 15.9 6.94 (13:50) 3.61 (17:00) 0 0 0 0 0
07-03-2020 20.9 (17:00) 9.3 (00:00) 15.1 12.5 (12:10) 7.5 (07:10) 0 0 0 0 0
06-03-2020 19.9 (14:00) 9.7 (00:00) 14.8 15.28 (13:30) 10 (13:30) 0 0 0 0 0
05-03-2020 26.8 (16:00) 9.6 (00:00) 18.2 12.78 (19:10) 7.22 (18:10) 0 0 0 0 0
04-03-2020 27.1 (15:30) 10.8 (00:00) 19 11.11 (11:40) 6.67 (10:40) 0 0 0 0 0
03-03-2020 24.6 (16:10) 7.5 (00:00) 16.1 12.22 (16:20) 6.94 (16:20) 0 0 0 0 0

Gráficas

Temp. máximas Temp. mínimas Temp. medias Precipitaciones Rachas de viento máximas Velocidades máximas media en intervalos de 10 minutos

Datos horarios

Fecha y hora oficial Temperatura (ºC) Velocidad del viento (km/h) Dirección del viento Racha (km/h) Dirección de racha Precipitación (mm) Presión (hPa) Tendencia (hPa) Humedad (%)
2020-04-01 23:00:00 13.8 16 Noroeste 32 Norte 1 1005 2.5 85
2020-04-01 22:00:00 14.4 8 Noroeste 16 Norte 0 1003.5 1.7 90
2020-04-01 21:00:00 15.2 7 Sudoeste 27 Oeste 1 1003 1.9 87
2020-04-01 20:00:00 17.9 8 Oeste 16 Oeste 0 1002.5 0.5 67
2020-04-01 19:00:00 18.5 0 Calma 22 Sur 0 1001.8 -0.2 64
2020-04-01 18:00:00 19.4 9 Sudeste 23 Sur 0 1001.1 -1.5 60
2020-04-01 17:00:00 18.2 10 Sudeste 28 Sur 0 1002 -1.5 64
2020-04-01 16:00:00 19.5 11 Sudeste 24 Sur 0 1002 -2.1 59
2020-04-01 15:00:00 22 3 Sur 15 Este 0 1002.6 -2.1 44
2020-04-01 14:00:00 21.1 8 Sudeste 14 Sudeste 0 1003.5 -1.2 49
2020-04-01 13:00:00 19.6 6 Oeste 15 Sur 0 1004.1 -0.4 57
2020-04-01 12:00:00 17.8 7 Sudoeste 14 Oeste 0 1004.7 0.5 64
2020-04-01 11:00:00 16.5 6 Noroeste 10 Norte 0 1004.7 1 73
2020-04-01 10:00:00 14 3 Noroeste 14 Noroeste 0 1004.5 1 85
2020-04-01 09:00:00 13.5 4 Sudoeste 6 Sudoeste 0 1004.2 1.1 96
2020-04-01 08:00:00 13 5 Oeste 7 Sudoeste 0 1003.7 0.3 97
2020-04-01 07:00:00 13.1 3 Oeste 8 Norte 0 1003.5 -0.2 97
2020-04-01 06:00:00 13.1 5 Norte 11 Este 0 1003.1 -1.1 96
2020-04-01 05:00:00 13.1 6 Norte 9 Norte 0 1003.4 -0.9 96
2020-04-01 04:00:00 13 4 Nordeste 6 Nordeste 0 1003.7 -0.6 94
2020-04-01 03:00:00 13.7 4 Nordeste 10 Este 0 1004.2 0.1 94
2020-04-01 02:00:00 13.8 6 Este 10 Este 0 1004.3 0.5 94
2020-04-01 01:00:00 13.8 5 Nordeste 8 Nordeste 0 1004.3 1.2 93
2020-04-01 00:00:00 13.8 5 Nordeste 12 Nordeste 0 1004.1 2 92
2020-03-31 23:00:00 14.5 6 Este 13 Nordeste 0 1003.8 2.3 89
2020-03-31 22:00:00 14.5 4 Nordeste 13 Nordeste 0 1003.1 1.9 89
2020-03-31 21:00:00 15.3 7 Este 17 Este 0 1002.1 1.4 84
2020-03-31 20:00:00 16.6 8 Este 14 Este 0 1001.5 0.7 77
2020-03-31 19:00:00 17 6 Este 22 Este 0 1001.2 0.1 76
2020-03-31 18:00:00 18.4 6 Este 17 Este 0 1000.7 -0.5 67
2020-03-31 17:00:00 18.7 6 Este 13 Este 0 1000.8 -0.7 64
2020-03-31 16:00:00 17.1 6 Nordeste 11 Este 0 1001.1 -0.5 71
2020-03-31 15:00:00 17.1 8 Este 15 Nordeste 0 1001.2 -0.5 69
2020-03-31 14:00:00 16.7 6 Este 14 Este 0 1001.5 -0.2 74
2020-03-31 13:00:00 14.9 5 Este 9 Este 0 1001.6 0 81
2020-03-31 12:00:00 13.9 3 Noroeste 10 Oeste 0 1001.7 0.2 83
2020-03-31 11:00:00 13.8 5 Norte 11 Noroeste 0 1001.7 -0.1 83
2020-03-31 10:00:00 12.1 8 Este 14 Norte 0.2 1001.6 1.7 91
2020-03-31 09:00:00 11.4 5 Este 17 Este 2.4 1001.5 1.2 94
2020-03-31 08:00:00 12.1 14 Oeste 24 Oeste 0 1001.8 1.1 84
2020-03-31 07:00:00 11.6 3 Norte 11 Nordeste 0 999.9 -1.7 85
2020-03-31 06:00:00 11.8 8 Este 16 Nordeste 0 1000.3 -2.3 84
2020-03-31 05:00:00 11.5 8 Nordeste 15 Este 0 1000.7 -2.3 87
2020-03-31 04:00:00 11.9 9 Nordeste 24 Este 0 1001.6 -2.1 86
2020-03-31 03:00:00 12.2 14 Este 27 Nordeste 0 1002.6 -1.4 84
2020-03-31 02:00:00 12 14 Nordeste 22 Este 0 1003 -0.8 85
2020-03-31 01:00:00 12 15 Este 30 Este 0 1003.7 -0.3 84
2020-03-31 00:00:00 12.1 17 Este 32 Este 0 1004 0.4 82
2020-03-30 23:00:00 12.1 15 Este 33 Este 0 1003.8 0.3 80
2020-03-30 22:00:00 12.4 15 Este 34 Nordeste 0 1004 0.6 78
2020-03-30 21:00:00 12.6 17 Este 31 Nordeste 0 1003.6 0.2 77
2020-03-30 20:00:00 13 18 Nordeste 32 Este 0 1003.5 -0.1 76
2020-03-30 19:00:00 13.3 16 Este 35 Este 0 1003.4 -0.1 76
2020-03-30 18:00:00 14.4 22 Este 39 Nordeste 0 1003.4 -0.5 74
2020-03-30 17:00:00 14.8 21 Este 36 Este 0 1003.6 -0.9 74
2020-03-30 16:00:00 16.4 18 Este 40 Este 0 1003.5 -1.5 73
2020-03-30 15:00:00 17.4 20 Este 38 Nordeste 0 1003.9 -1.5 70
2020-03-30 14:00:00 18.2 20 Este 34 Nordeste 0 1004.5 -0.8 67
2020-03-30 13:00:00 17.4 21 Este 35 Este 0 1005 -0.1 67
2020-03-30 12:00:00 15.6 10 Nordeste 15 Nordeste 0 1005.4 0.2 68
2020-03-30 11:00:00 13.9 3 Sur 7 Noroeste 0 1005.3 0.6 75
2020-03-30 10:00:00 12.1 3 Sudoeste 8 Sudoeste 0 1005.1 0.6 84
2020-03-30 09:00:00 10.5 5 Sur 8 Sur 0 1005.2 0.4 87
2020-03-30 08:00:00 10.1 4 Sudoeste 8 Sudoeste 0 1004.7 -0.7 90
2020-03-30 07:00:00 9.5 3 Sudoeste 8 Noroeste 0 1004.5 -1.3 91
2020-03-30 06:00:00 9.8 6 Noroeste 12 Noroeste 0 1004.8 -1.6 89
2020-03-30 05:00:00 10.7 4 Oeste 9 Oeste 0 1005.4 -1.4 86
2020-03-30 04:00:00 10.5 4 Oeste 8 Noroeste 0 1005.8 -1.7 87
2020-03-30 03:00:00 11.5 8 Oeste 12 Oeste 0 1006.4 -1.3 83
2020-03-30 02:00:00 12.6 4 Sur 12 Noroeste 0 1006.8 -1 74
2020-03-30 01:00:00 13.1 8 Oeste 12 Oeste 0 1007.5 -0.4 73
2020-03-30 00:00:00 13.6 4 Noroeste 13 Sudoeste 0 1007.7 0 70
2020-03-29 23:00:00 15.2 8 Sudoeste 14 Sudoeste 0 1007.8 0.4 61
2020-03-29 22:00:00 15.7 6 Sudoeste 14 Sudoeste 0 1007.9 0.8 55
2020-03-29 21:00:00 16.1 4 Sur 15 Sur 0 1007.7 0.7 53
2020-03-29 20:00:00 18.5 10 Sur 23 Sur 0 1007.4 -0.1 48
2020-03-29 19:00:00 20.5 14 Sur 28 Sudoeste 0 1007.1 -1.2 48
2020-03-29 18:00:00 22.4 5 Sudeste 15 Sudoeste 0 1007 -2.1 33
2020-03-29 17:00:00 22.3 7 Sur 23 Sudoeste 0 1007.5 -2.3 32
2020-03-29 16:00:00 21.8 10 Sudoeste 19 Sudoeste 0 1008.3 -2.4 32
2020-03-29 15:00:00 20.8 8 Sudoeste 19 Oeste 0 1009.1 -2.2 35
2020-03-29 14:00:00 19.9 9 Oeste 22 Oeste 0 1009.8 -1.8 38
2020-03-29 13:00:00 18.3 10 Oeste 22 Sudoeste 0 1010.7 -0.9 44
2020-03-29 12:00:00 16.1 7 Sudoeste 14 Sudoeste 0 1011.3 -0.2 54
2020-03-29 11:00:00 13.5 4 Sudoeste 8 Sudoeste 0 1011.6 0.3 64
2020-03-29 10:00:00 11 4 Sudoeste 9 Oeste 0 1011.6 0.5 79
2020-03-29 09:00:00 7.8 2 Sudoeste 9 Noroeste 0 1011.5 0.5 91
2020-03-29 08:00:00 6.3 4 Oeste 7 Oeste 0 1011.3 0 92
2020-03-29 07:00:00 6.8 4 Sudoeste 8 Sudoeste 0 1011.1 -0.8 95
2020-03-29 06:00:00 7.5 4 Sudoeste 9 Oeste 0 1011 -1.3 93
2020-03-29 05:00:00 7.3 3 Sudoeste 7 Noroeste 0 1011.3 -1.3 92
2020-03-29 03:00:00 8.3 4 Noroeste 12 Sudoeste 0 1012.3 -0.3 91
2020-03-29 01:00:00 8.8 5 Oeste 8 Oeste 0 1012.6 0.3 93
2020-03-29 00:00:00 8.9 3 Oeste 5 Oeste 0 1012.7 0.8 91
2020-03-28 23:00:00 9.2 0 Calma 7 Sur 0 1012.6 1.7 87
2020-03-28 22:00:00 10.7 4 Sur 10 Norte 0 1012.3 1.9 82
2020-03-28 21:00:00 10.9 5 Norte 10 Nordeste 0 1011.9 2 81
2020-03-28 20:00:00 12.4 8 Nordeste 16 Este 0 1010.9 1.5 73
2020-03-28 19:00:00 14.5 12 Nordeste 26 Este 0 1010.4 0.9 64
2020-03-28 18:00:00 16.8 16 Nordeste 26 Este 0 1009.9 0 55
2020-03-28 17:00:00 17.3 11 Oeste 23 Norte 0 1009.4 -1 43
2020-03-28 16:00:00 17.5 8 Oeste 31 Sur 0 1009.5 -1.5 43
2020-03-28 15:00:00 17.9 10 Oeste 18 Oeste 0 1009.9 -1.5 44
2020-03-28 14:00:00 17 6 Noroeste 15 Oeste 0 1010.4 -1.2 49
2020-03-28 13:00:00 15.9 6 Noroeste 18 Noroeste 0 1011 -0.6 50
2020-03-28 12:00:00 14.6 7 Noroeste 16 Noroeste 0 1011.4 0.3 59
2020-03-28 11:00:00 13.2 3 Sudoeste 15 Norte 0 1011.6 0.9 65
2020-03-28 10:00:00 11.3 5 Oeste 14 Noroeste 0 1011.6 1.4 73
2020-03-28 09:00:00 9.1 4 Oeste 13 Sudoeste 0 1011.1 1.8 85
2020-03-28 08:00:00 8.2 5 Sudoeste 10 Oeste 0 1010.7 1.8 90
2020-03-28 07:00:00 8.1 6 Oeste 21 Oeste 0 1010.2 1.4 89
2020-03-28 06:00:00 8.1 17 Noroeste 27 Noroeste 0 1009.3 0.6 91
2020-03-28 05:00:00 8.6 13 Noroeste 21 Noroeste 0.4 1008.9 0.2 92
2020-03-28 04:00:00 9.1 11 Noroeste 19 Noroeste 0.2 1008.8 0.1 95
2020-03-28 03:00:00 9.3 4 Oeste 9 Noroeste 0 1008.7 0.3 95
2020-03-28 02:00:00 9.2 5 Noroeste 8 Noroeste 0 1008.7 0.4 96
2020-03-28 01:00:00 9.2 4 Noroeste 8 Oeste 0.8 1008.7 0.6 95
2020-03-28 00:00:00 9.2 3 Noroeste 12 Noroeste 1.8 1008.4 0.9 95
2020-03-27 23:00:00 9.3 5 Noroeste 9 Noroeste 0.6 1008.3 1.7 95
2020-03-27 22:00:00 9.6 2 Noroeste 5 Noroeste 1 1008.1 2.2 92
2020-03-27 21:00:00 9.7 4 Norte 8 Oeste 1.2 1007.5 2.1 93
2020-03-27 20:00:00 9.7 0 Calma 17 Nordeste 0.6 1006.6 1.6 91
2020-03-27 19:00:00 9.8 12 Este 28 Nordeste 0.6 1005.9 0.8 89
2020-03-27 18:00:00 10.5 18 Este 32 Este 0.2 1005.4 0 84
2020-03-27 17:00:00 11.1 18 Nordeste 30 Este 0 1005 -0.9 79
2020-03-27 16:00:00 10.9 14 Nordeste 26 Este 0 1005.1 -0.8 84
2020-03-27 15:00:00 10.6 13 Este 22 Este 0 1005.4 -0.5 88
2020-03-27 14:00:00 10.3 11 Nordeste 18 Nordeste 0 1005.9 0.1 89
2020-03-27 13:00:00 10.9 7 Este 15 Nordeste 0 1005.9 0.4 78
2020-03-27 12:00:00 11.3 8 Este 15 Este 0 1005.9 0.7 76
2020-03-27 11:00:00 10.9 12 Este 21 Este 0 1005.8 1.2 73
2020-03-27 10:00:00 11.4 9 Nordeste 17 Este 0 1005.5 1.3 73
2020-03-27 09:00:00 10.6 6 Nordeste 12 Nordeste 0 1005.2 1.3 76
2020-03-27 08:00:00 10.2 5 Este 8 Este 0 1004.6 0.5 79
2020-03-27 07:00:00 10.1 2 Este 7 Nordeste 0 1004.2 0.2 77
2020-03-27 06:00:00 10 4 Nordeste 8 Este 0 1003.9 -0.2 80
2020-03-27 05:00:00 10.4 6 Nordeste 13 Este 0 1004.1 -0.4 75
2020-03-27 04:00:00 11.1 6 Este 14 Este 0 1004 -0.3 70
2020-03-27 03:00:00 11.3 8 Este 18 Este 0 1004.1 -0.2 74
2020-03-27 02:00:00 11.3 8 Este 14 Este 0 1004.5 0.5 76
2020-03-27 01:00:00 11.6 6 Este 14 Este 0 1004.3 0.8 75
2020-03-27 00:00:00 11.8 9 Este 15 Este 0 1004.3 1.4 76
2020-03-26 23:00:00 11.5 3 Este 9 Este 0 1004 2.2 76
2020-03-26 22:00:00 11.7 7 Este 14 Nordeste 0 1003.5 2.9 73
2020-03-26 21:00:00 12 9 Nordeste 27 Este 0 1002.9 3.5 72
2020-03-26 20:00:00 13.1 14 Este 30 Este 0 1001.8 2.7 73
2020-03-26 19:00:00 14.7 19 Nordeste 32 Este 0 1000.6 1.5 73
2020-03-26 18:00:00 19.5 18 Norte 32 Nordeste 0 999.4 0.1 29
2020-03-26 17:00:00 20.1 19 Norte 32 Norte 0 999.1 -0.4 28
2020-03-26 16:00:00 20.3 18 Norte 34 Norte 0 999.1 -1.1 31
2020-03-26 15:00:00 20.3 18 Noroeste 28 Norte 0 999.3 -1.4 29
2020-03-26 14:00:00 19.6 17 Norte 30 Norte 0 999.5 -2 35
2020-03-26 13:00:00 18.8 14 Norte 24 Norte 0 1000.2 -1.4 37
2020-03-26 12:00:00 16 5 Sudoeste 14 Sudoeste 0 1000.7 -1 73
2020-03-26 11:00:00 14 8 Sudoeste 14 Sudoeste 0 1001.5 -0.5 81
2020-03-26 10:00:00 11.1 3 Sudoeste 8 Sur 0 1001.6 -0.7 92
2020-03-26 09:00:00 9.1 4 Sudoeste 10 Oeste 0 1001.7 -1.1 98
2020-03-26 08:00:00 8.6 5 Sudoeste 13 Sudoeste 0 1002 -1 98
2020-03-26 07:00:00 8.9 6 Sudoeste 9 Oeste 0 1002.3 -1.7 96
2020-03-26 06:00:00 9.3 3 Oeste 8 Oeste 0 1002.8 -2.3 96
2020-03-26 05:00:00 8.7 4 Norte 6 Norte 0 1003 -3.3 98
2020-03-26 04:00:00 9 3 Norte 5 Norte 0 1004 -2.8 95
2020-03-26 03:00:00 9.8 4 Sur 7 Sur 0.8 1005.1 -2.6 95
2020-03-26 02:00:00 9.7 7 Nordeste 13 Nordeste 0 1006.3 -1.8 95
2020-03-26 01:00:00 9.6 10 Nordeste 16 Nordeste 0 1006.8 -2.1 95
2020-03-26 00:00:00 9.6 9 Nordeste 16 Nordeste 0 1007.7 -1.8 96
2020-03-25 23:00:00 9.6 10 Nordeste 14 Nordeste 0 1008.1 -0.4 96
2020-03-25 22:00:00 10 6 Nordeste 24 Nordeste 1 1008.9 0.7 95
2020-03-25 21:00:00 11.1 14 Nordeste 25 Nordeste 0.6 1009.5 1.5 88
2020-03-25 20:00:00 12.1 5 Este 15 Este 0 1008.5 0.7 78
2020-03-25 19:00:00 13 8 Sudeste 19 Sudeste 0 1008.2 0.1 69
2020-03-25 18:00:00 14.1 9 Sudeste 19 Este 0 1008 -0.4 65
2020-03-25 17:00:00 14.5 11 Este 23 Este 0 1007.8 -0.8 62
2020-03-25 16:00:00 14.3 17 Este 25 Este 0 1008.1 -0.9 66
2020-03-25 15:00:00 14.7 9 Este 15 Nordeste 0 1008.4 -0.8 60
2020-03-25 14:00:00 14.8 6 Este 12 Sudeste 0 1008.6 -0.7 58
2020-03-25 13:00:00 14.4 4 Noroeste 10 Oeste 0 1009 -0.4 58
2020-03-25 12:00:00 14.3 6 Oeste 12 Noroeste 0 1009.2 -0.1 57
2020-03-25 11:00:00 14.6 5 Oeste 15 Noroeste 0 1009.3 -0.2 59
2020-03-25 10:00:00 13.4 9 Noroeste 17 Noroeste 0 1009.4 0.3 72
2020-03-25 09:00:00 11.4 4 Sudoeste 10 Oeste 0 1009.3 0.5 84
2020-03-25 08:00:00 9.9 5 Oeste 12 Sudeste 0 1009.5 0.6 89
2020-03-25 07:00:00 9.9 8 Nordeste 18 Noroeste 0 1009.1 0.2 87
2020-03-25 06:00:00 9.9 12 Noroeste 17 Noroeste 0 1008.8 0 86
2020-03-25 05:00:00 10 11 Noroeste 17 Noroeste 0 1008.9 -0.1 86
2020-03-25 04:00:00 10.1 6 Noroeste 10 Norte 0 1008.9 -0.2 86
2020-03-25 03:00:00 10.6 8 Norte 20 Norte 0 1008.8 0 85
2020-03-25 02:00:00 10.6 8 Norte 17 Noroeste 0 1009 0.4 86
2020-03-25 01:00:00 10.7 9 Norte 16 Norte 0 1009.1 0.8 85
2020-03-25 00:00:00 11.2 9 Norte 15 Norte 0 1008.8 0.9 89
2020-03-24 23:00:00 11.7 5 Norte 14 Norte 0.2 1008.6 1.6 95
2020-03-24 22:00:00 11.8 10 Norte 24 Norte 0.8 1008.3 1.7 95
2020-03-24 21:00:00 12.4 11 Norte 21 Norte 0.2 1007.9 1.8 96
2020-03-24 20:00:00 12.5 8 Norte 19 Nordeste 0 1007 1.1 96
2020-03-24 19:00:00 12.7 3 Norte 8 Norte 1 1006.6 0.6 96
2020-03-24 18:00:00 13.1 3 Norte 6 Norte 0.4 1006.1 0.1 96
2020-03-24 17:00:00 13.1 4 Nordeste 27 Nordeste 1.2 1005.9 -0.4 95
2020-03-24 16:00:00 13.1 20 Nordeste 41 Nordeste 1.2 1006 -0.6 92
2020-03-24 15:00:00 13.2 24 Nordeste 52 Nordeste 0.2 1006 -0.5 92
2020-03-24 14:00:00 13.4 27 Nordeste 49 Este 0.4 1006.3 -0.5 92
2020-03-24 13:00:00 13.3 23 Este 54 Nordeste 1 1006.6 0.1 93
2020-03-24 12:00:00 13.1 29 Nordeste 57 Nordeste 1.2 1006.5 0.2 93
2020-03-24 11:00:00 12.5 27 Nordeste 46 Este 2.8 1006.8 0.4 92
2020-03-24 10:00:00 11.8 11 Norte 24 Norte 4.2 1006.5 -0.1 95
2020-03-24 09:00:00 11.7 3 Nordeste 29 Norte 1.2 1006.3 -0.2 93
2020-03-24 08:00:00 11.6 16 Norte 32 Nordeste 1.8 1006.4 0.1 91
2020-03-24 07:00:00 11.4 20 Nordeste 37 Nordeste 6 1006.6 -0.2 94
2020-03-24 06:00:00 11.7 10 Nordeste 27 Norte 4.6 1006.5 -0.8 95
2020-03-24 05:00:00 12.1 15 Norte 31 Nordeste 5.8 1006.3 -1.4 94
2020-03-24 04:00:00 11.9 17 Noroeste 29 Norte 8.4 1006.8 -1.1 97
2020-03-24 03:00:00 12.4 13 Noroeste 29 Noroeste 8.8 1007.3 -0.5 96
2020-03-24 02:00:00 12.5 9 Nordeste 22 Nordeste 7.4 1007.7 0.3 96
2020-03-24 01:00:00 13.1 11 Este 25 Este 7.8 1007.9 0.6 98
2020-03-24 00:00:00 13.3 10 Este 28 Nordeste 4.8 1007.8 0.7 97
2020-03-23 23:00:00 13.4 15 Nordeste 35 Nordeste 0.4 1007.4 0.6 94
2020-03-23 22:00:00 13.4 17 Nordeste 32 Este 1 1007.3 0.8 93
2020-03-23 21:00:00 13.9 22 Nordeste 39 Este 0.2 1007.1 0.7 93
2020-03-23 20:00:00 13.8 15 Nordeste 28 Nordeste 0.2 1006.8 0.6 95
2020-03-23 19:00:00 14 18 Nordeste 31 Este 0.6 1006.5 0.7 95
2020-03-23 18:00:00 13.9 15 Nordeste 39 Este 3.8 1006.4 0.2 96
2020-03-23 17:00:00 14.5 11 Este 33 Nordeste 2 1006.2 -0.7 93
2020-03-23 16:00:00 15.6 21 Nordeste 40 Nordeste 0 1005.8 -2.1 82
2020-03-23 15:00:00 17.1 22 Nordeste 38 Este 0 1006.2 -2.1 76
2020-03-23 14:00:00 16.2 6 Sudoeste 16 Nordeste 0 1006.9 -1.1 81
2020-03-23 13:00:00 15.6 8 Nordeste 17 Nordeste 0 1007.9 -0.6 79
2020-03-23 12:00:00 14.1 11 Nordeste 19 Nordeste 0 1008.3 0.6 88
2020-03-23 11:00:00 12.7 9 Norte 13 Norte 1 1008 0.6 95
2020-03-23 10:00:00 11.8 4 Sur 8 Sur 0 1008.5 1.7 92
2020-03-23 09:00:00 11.2 6 Noroeste 10 Oeste 0.2 1007.7 1.2 94
2020-03-23 08:00:00 10.8 5 Sudoeste 8 Sudoeste 0 1007.4 1.2 96
2020-03-23 07:00:00 10.5 4 Oeste 7 Oeste 0 1006.8 0.9 96
2020-03-23 06:00:00 10.3 3 Sudoeste 6 Sur 0 1006.5 0.1 97
2020-03-23 05:00:00 10.2 4 Sudoeste 9 Oeste 0 1006.2 -0.5 97
2020-03-23 04:00:00 10 0 Calma 6 Oeste 0 1005.9 -0.6 96
2020-03-23 03:00:00 10.5 5 Sur 8 Sudoeste 0 1006.4 -0.6 96
2020-03-23 02:00:00 10.6 6 Sudoeste 9 Sudoeste 0 1006.7 -0.3 97
2020-03-23 01:00:00 11.1 0 Calma 7 Sudoeste 0 1006.5 -0.2 96
2020-03-23 00:00:00 11.2 5 Sudoeste 7 Oeste 0 1007 0.9 97
2020-03-22 23:00:00 11.2 0 Calma 6 Oeste 0 1007 1.3 96
2020-03-22 22:00:00 11.4 2 Sudoeste 8 Nordeste 0 1006.7 1.6 95
2020-03-22 21:00:00 11.6 6 Nordeste 10 Nordeste 0 1006.1 1.4 96
2020-03-22 20:00:00 11.5 5 Nordeste 13 Nordeste 0 1005.7 1.6 95
2020-03-22 19:00:00 11.6 6 Nordeste 14 Este 0 1005.1 1.1 95
2020-03-22 18:00:00 11.8 10 Nordeste 20 Este 1.2 1004.7 0.3 96
2020-03-22 17:00:00 11.7 13 Nordeste 22 Este 1.2 1004.1 -0.7 96
2020-03-22 16:00:00 12.2 5 Este 13 Sudeste 1.4 1004 -0.9 94
2020-03-22 15:00:00 12.6 0 Calma 13 Oeste 1.6 1004.4 -0.7 90
2020-03-22 14:00:00 13.3 7 Sudoeste 11 Sudoeste 0 1004.8 -0.5 82
2020-03-22 13:00:00 13.7 2 Oeste 5 Oeste 0 1004.9 -0.3 77
2020-03-22 12:00:00 13.2 3 Noroeste 9 Sudoeste 0 1005.1 0.4 79
2020-03-22 11:00:00 12.6 5 Sudoeste 9 Oeste 0.2 1005.3 0.7 79
2020-03-22 10:00:00 11.5 2 Oeste 6 Sudeste 0 1005.2 1.5 86
2020-03-22 09:00:00 10.2 3 Sudoeste 8 Noroeste 0 1004.7 0.9 92
2020-03-22 08:00:00 9.4 4 Sudoeste 12 Sur 0 1004.6 1.1 95
2020-03-22 07:00:00 8.9 5 Noroeste 15 Noroeste 0 1003.7 -0.1 95
2020-03-22 06:00:00 8.5 4 Oeste 7 Sudoeste 0 1003.8 -0.7 94
2020-03-22 05:00:00 8.6 2 Oeste 9 Oeste 0 1003.5 -1.2 94
2020-03-22 04:00:00 9.6 5 Sudoeste 9 Sudoeste 0 1003.8 -1.4 93
2020-03-22 03:00:00 9.8 4 Sur 10 Oeste 0 1004.5 -0.9 93
2020-03-22 02:00:00 9.8 3 Oeste 9 Sudoeste 0 1004.7 -1 93
2020-03-22 01:00:00 9.7 6 Oeste 9 Oeste 0 1005.2 -1 97
2020-03-22 00:00:00 9.6 3 Oeste 5 Noroeste 0 1005.4 -0.5 95
2020-03-21 23:00:00 10.9 4 Oeste 8 Sur 0 1005.7 0 94
2020-03-21 22:00:00 11.3 4 Oeste 12 Sudoeste 0 1006.2 0.8 94
2020-03-21 21:00:00 11.1 3 Sudoeste 10 Noroeste 1.4 1005.9 0.9 94
2020-03-21 20:00:00 11 5 Oeste 14 Oeste 0.2 1005.7 0.7 94
2020-03-21 19:00:00 11 6 Oeste 11 Oeste 2.2 1005.4 0.5 93
2020-03-21 18:00:00 11.1 5 Noroeste 36 Norte 2.6 1005 0.3 92
2020-03-21 17:00:00 11.3 11 Noroeste 25 Noroeste 4.2 1005 0.2 93
2020-03-21 16:00:00 11.8 13 Noroeste 22 Noroeste 6 1004.9 -0.5 92
2020-03-21 15:00:00 15.7 7 Sudeste 27 Este 0.2 1004.7 -0.9 72
2020-03-21 14:00:00 15.9 12 Este 23 Este 0 1004.8 -1.2 71
2020-03-21 13:00:00 15.9 13 Este 23 Este 0 1005.4 -0.7 70
2020-03-21 12:00:00 16.6 11 Nordeste 21 Este 0 1005.6 -0.8 67
2020-03-21 11:00:00 16.6 11 Este 20 Nordeste 0 1006 -0.3 67
2020-03-21 10:00:00 16 3 Nordeste 8 Nordeste 0 1006.1 -0.2 69
2020-03-21 09:00:00 14 5 Oeste 9 Sudoeste 0 1006.4 0 78
2020-03-21 08:00:00 13 6 Sudoeste 10 Oeste 0 1006.3 -0.4 82
2020-03-21 07:00:00 12.9 4 Oeste 8 Oeste 0 1006.3 -0.6 82
2020-03-21 06:00:00 12.8 5 Oeste 7 Sudoeste 0 1006.4 -1 83
2020-03-21 05:00:00 12.8 4 Sur 7 Oeste 0 1006.7 -0.9 81
2020-03-21 04:00:00 12.6 5 Oeste 7 Oeste 0 1006.9 -1.8 85
2020-03-21 03:00:00 12.1 4 Sudoeste 8 Noroeste 0 1007.4 -2 85
2020-03-21 02:00:00 12.6 4 Noroeste 7 Noroeste 0 1007.6 -1.9 82
2020-03-21 01:00:00 14 3 Sudoeste 10 Sudeste 0 1008.7 -0.9 76
2020-03-21 00:00:00 14.1 4 Este 13 Este 0 1009.4 0 76
2020-03-20 23:00:00 14.2 7 Nordeste 17 Este 0 1009.5 0.9 79
2020-03-20 22:00:00 14.5 10 Este 21 Este 0 1009.6 1.8 78
2020-03-20 21:00:00 14.5 10 Este 18 Este 0 1009.4 1.7 78
2020-03-20 20:00:00 14.6 10 Este 23 Este 0 1008.6 0.7 78
2020-03-20 19:00:00 14.8 13 Nordeste 27 Este 0 1007.8 -0.7 69
2020-03-20 18:00:00 16 14 Este 25 Este 0 1007.7 -1.4 63
2020-03-20 17:00:00 17 14 Este 26 Este 0 1007.9 -2.2 57
2020-03-20 16:00:00 17.1 11 Este 22 Nordeste 0 1008.5 -2.2 55
2020-03-20 15:00:00 17 11 Nordeste 24 Nordeste 0 1009.1 -2 54
2020-03-20 14:00:00 15.5 14 Este 24 Este 0 1010.1 -1.1 60
2020-03-20 13:00:00 15.3 14 Este 27 Nordeste 0 1010.7 -0.3 61
2020-03-20 12:00:00 15.2 8 Este 22 Este 0 1011.1 0.3 65
2020-03-20 11:00:00 14.7 2 Sudeste 10 Noroeste 0 1011.2 0.8 68
2020-03-20 10:00:00 13.8 7 Noroeste 15 Noroeste 0 1011 0.9 73
2020-03-20 09:00:00 12.5 8 Noroeste 14 Noroeste 0 1010.8 0.8 78
2020-03-20 08:00:00 11.3 8 Noroeste 18 Noroeste 0 1010.4 0.4 82
2020-03-20 07:00:00 10.7 8 Norte 14 Norte 0 1010.1 0 86
2020-03-20 06:00:00 9.9 0 Calma 6 Norte 0 1010 -0.5 90
2020-03-20 05:00:00 10.7 5 Noroeste 7 Noroeste 0 1010 -1.3 89
2020-03-20 04:00:00 11.5 4 Oeste 11 Norte 0 1010.1 -1.8 89
2020-03-20 03:00:00 11.5 5 Norte 13 Norte 0 1010.5 -1.6 91
2020-03-20 02:00:00 11.5 5 Norte 9 Norte 0 1011.3 -1.3 90
2020-03-20 01:00:00 12.3 3 Noroeste 10 Norte 0 1011.9 -0.6 86
2020-03-20 00:00:00 12.4 7 Nordeste 15 Nordeste 0 1012.1 -0.3 86
2020-03-19 23:00:00 13.6 6 Nordeste 14 Nordeste 0 1012.6 0.4 82
2020-03-19 22:00:00 13.8 8 Nordeste 15 Nordeste 0 1012.5 0.7 83
2020-03-19 21:00:00 13.9 11 Nordeste 17 Nordeste 0 1012.4 0.6 80
2020-03-19 20:00:00 14.4 9 Nordeste 26 Nordeste 0 1012.2 0.3 78
2020-03-19 19:00:00 15.3 16 Nordeste 27 Este 0 1011.8 -0.4 70
2020-03-19 18:00:00 16.5 18 Nordeste 30 Nordeste 0 1011.8 -0.9 63
2020-03-19 17:00:00 17.4 16 Este 32 Este 0 1011.9 -1.6 58
2020-03-19 16:00:00 18 19 Este 36 Este 0 1012.2 -2 55
2020-03-19 15:00:00 18.7 19 Este 35 Este 0 1012.7 -2 51
2020-03-19 14:00:00 18.2 20 Este 36 Nordeste 0 1013.5 -1.7 53
2020-03-19 13:00:00 17.9 19 Nordeste 35 Nordeste 0 1014.2 -1.1 58
2020-03-19 12:00:00 17.2 21 Nordeste 35 Nordeste 0 1014.7 -0.3 62
2020-03-19 11:00:00 16.9 18 Este 30 Este 0 1015.2 0.5 63
2020-03-19 10:00:00 15.3 8 Nordeste 18 Noroeste 0 1015.3 0.4 68
2020-03-19 09:00:00 13.3 10 Noroeste 22 Noroeste 0 1015 0.2 73
2020-03-19 08:00:00 12.1 11 Noroeste 20 Noroeste 0 1014.7 0 78
2020-03-19 07:00:00 12 11 Noroeste 19 Noroeste 0 1014.9 0.2 78
2020-03-19 06:00:00 12 11 Noroeste 17 Noroeste 0 1014.8 -0.5 78
2020-03-19 05:00:00 12 11 Noroeste 17 Noroeste 0 1014.7 -1.4 77
2020-03-19 04:00:00 12.6 8 Noroeste 13 Noroeste 0 1014.7 -1.5 74
2020-03-19 03:00:00 13.6 6 Noroeste 10 Noroeste 0 1015.3 -1.3 70
2020-03-19 02:00:00 14 4 Noroeste 14 Noroeste 0 1016.1 -1 69
2020-03-19 01:00:00 14.3 6 Norte 12 Norte 0 1016.2 -0.8 68
2020-03-19 00:00:00 14.1 6 Nordeste 13 Norte 0 1016.6 -0.1 69
2020-03-18 23:00:00 14.6 7 Nordeste 19 Nordeste 0 1017.1 0.8 70
2020-03-18 22:00:00 15.2 11 Nordeste 23 Nordeste 0 1017 1.2 68
2020-03-18 21:00:00 15.1 11 Este 22 Nordeste 0 1016.7 1.2 70
2020-03-18 20:00:00 15.3 11 Nordeste 24 Nordeste 0 1016.3 0.8 69
2020-03-18 19:00:00 16.2 15 Nordeste 30 Este 0 1015.8 0.2 65
2020-03-18 18:00:00 17.4 21 Nordeste 37 Nordeste 0 1015.5 -0.3 60
2020-03-18 17:00:00 18.6 19 Este 38 Este 0 1015.5 -1 55
2020-03-18 16:00:00 19.4 22 Este 38 Este 0 1015.6 -1.5 50
2020-03-18 15:00:00 19.6 21 Este 37 Este 0 1015.8 -2 51
2020-03-18 14:00:00 19.9 22 Este 39 Nordeste 0 1016.5 -1.7 50
2020-03-18 13:00:00 19.5 17 Nordeste 34 Nordeste 0 1017.1 -1.5 52
2020-03-18 12:00:00 19.1 17 Este 29 Este 0 1017.8 -0.5 52
2020-03-18 11:00:00 18.5 11 Este 20 Este 0 1018.2 0.1 61
2020-03-18 10:00:00 15.8 5 Noroeste 12 Norte 0 1018.6 0.6 74
2020-03-18 09:00:00 13 5 Sudoeste 10 Sur 0 1018.3 0.5 85
2020-03-18 08:00:00 11.3 3 Sudeste 12 Noroeste 0 1018.1 0.5 91
2020-03-18 07:00:00 11.6 9 Noroeste 18 Noroeste 0 1018 0.5 91
2020-03-18 06:00:00 11.1 5 Oeste 10 Oeste 0 1017.8 0 94
2020-03-18 05:00:00 11.9 5 Norte 13 Noroeste 0 1017.6 -0.2 91
2020-03-18 04:00:00 12 9 Noroeste 14 Noroeste 0 1017.5 -0.3 91
2020-03-18 03:00:00 12.2 8 Norte 10 Norte 0 1017.8 0 88
2020-03-18 02:00:00 13 5 Nordeste 27 Nordeste 0 1017.8 -0.2 83
2020-03-18 01:00:00 14.4 15 Este 31 Nordeste 0 1017.8 0.5 80
2020-03-18 00:00:00 14.6 17 Nordeste 30 Nordeste 0 1017.8 1 82
2020-03-17 23:00:00 14.6 12 Este 32 Este 0 1018 2.1 81
2020-03-17 22:00:00 15 18 Nordeste 32 Nordeste 0 1017.3 2.1 81
2020-03-17 21:00:00 15.6 17 Nordeste 29 Este 0 1016.8 2.1 88
2020-03-17 20:00:00 15.3 3 Noroeste 7 Sur 0 1015.9 1.2 86
2020-03-17 19:00:00 16 4 Sur 8 Noroeste 0 1015.2 0.7 79
2020-03-17 18:00:00 16.7 2 Sudoeste 7 Sur 0 1014.7 -0.1 72
2020-03-17 17:00:00 17.2 5 Oeste 9 Noroeste 0 1014.7 -0.5 65
2020-03-17 16:00:00 17.1 4 Oeste 12 Noroeste 0 1014.5 -1.5 63
2020-03-17 15:00:00 17 5 Noroeste 18 Oeste 0 1014.8 -1.4 62
2020-03-17 14:00:00 17.3 8 Noroeste 19 Noroeste 0 1015.2 -1.5 61
2020-03-17 13:00:00 16.3 6 Norte 17 Noroeste 0 1016 -0.3 67
2020-03-17 12:00:00 14.3 8 Noroeste 13 Oeste 0 1016.2 0.6 77
2020-03-17 11:00:00 11.9 4 Nordeste 9 Norte 0 1016.7 1.9 83
2020-03-17 10:00:00 10.4 3 Sudeste 8 Sur 0 1016.3 2.2 86
2020-03-17 09:00:00 9.3 0 Calma 6 Oeste 1.2 1015.6 2.3 90
2020-03-17 08:00:00 8.4 3 Sudoeste 6 Oeste 0 1014.8 2.1 90
2020-03-17 07:00:00 8.1 3 Noroeste 5 Oeste 0 1014.1 1.9 90
2020-03-17 06:00:00 8.2 3 Norte 5 Norte 0 1013.3 1 90
2020-03-17 05:00:00 8.4 4 Oeste 10 Oeste 0 1012.7 0.6 86
2020-03-17 04:00:00 8.6 5 Sudoeste 8 Oeste 0 1012.2 0.4 85
2020-03-17 03:00:00 8.2 2 Oeste 6 Oeste 0 1012.3 0.6 87
2020-03-17 02:00:00 7.8 0 Calma 8 Oeste 0 1012.1 1 90
2020-03-17 01:00:00 7.6 4 Oeste 6 Oeste 0 1011.8 1.7 92
2020-03-17 00:00:00 8.6 5 Oeste 7 Oeste 0 1011.7 2.4 89
2020-03-16 23:00:00 8.7 4 Oeste 8 Oeste 0 1011.1 2.8 89
2020-03-16 22:00:00 8.6 4 Oeste 8 Sudoeste 0 1010.1 2.5 89
2020-03-16 21:00:00 9.5 3 Oeste 7 Oeste 0 1009.3 2.5 88
2020-03-16 20:00:00 9.9 4 Sudoeste 8 Sudoeste 0 1008.3 2.1 82
2020-03-16 19:00:00 9.7 3 Oeste 11 Oeste 0.2 1007.6 1.8 83
2020-03-16 18:00:00 9.8 8 Oeste 19 Oeste 0 1006.8 1.5 80
2020-03-16 17:00:00 10.2 12 Oeste 24 Oeste 0.2 1006.2 0.9 76
2020-03-16 16:00:00 10.8 14 Noroeste 35 Noroeste 0.2 1005.8 0.4 68
2020-03-16 15:00:00 11.4 15 Noroeste 30 Noroeste 0 1005.3 0.8 73
2020-03-16 14:00:00 11.6 13 Noroeste 39 Noroeste 0.2 1005.3 1.2 79
2020-03-16 13:00:00 10 24 Noroeste 45 Noroeste 0.2 1005.4 1.4 88
2020-03-16 12:00:00 16.7 9 Sudoeste 30 Noroeste 0 1004.5 0.6 64
2020-03-16 11:00:00 16.5 8 Sudeste 19 Sudeste 0 1004.1 0.3 76
2020-03-16 10:00:00 15.7 7 Sudeste 15 Este 0 1004 0.4 82
2020-03-16 09:00:00 15 7 Este 12 Este 0 1003.9 0.4 89
2020-03-16 08:00:00 14.2 7 Este 12 Nordeste 0 1003.8 0.2 91
2020-03-16 07:00:00 14.1 7 Nordeste 11 Nordeste 0 1003.6 -0.2 91
2020-03-16 06:00:00 14.2 7 Este 13 Este 0 1003.5 -1.4 91
2020-03-16 05:00:00 14.1 4 Nordeste 7 Nordeste 0 1003.6 -2.4 91
2020-03-16 04:00:00 14 5 Nordeste 15 Nordeste 0 1003.8 -2.9 92
2020-03-16 03:00:00 14.2 10 Nordeste 15 Nordeste 0 1004.9 -2.4 92
2020-03-16 02:00:00 14.4 7 Nordeste 13 Este 0.2 1006 -1.4 91
2020-03-16 01:00:00 14.7 9 Nordeste 14 Nordeste 0.2 1006.7 -0.3 88
2020-03-16 00:00:00 15.3 6 Este 19 Este 0 1007.3 0.2 81
2020-03-15 23:00:00 15 9 Este 20 Nordeste 0 1007.4 0.2 83
2020-03-15 22:00:00 15.1 11 Nordeste 20 Este 0 1007 -0.3 82
2020-03-15 21:00:00 15.4 12 Nordeste 22 Este 0 1007.1 -0.2 78
2020-03-15 20:00:00 15.7 13 Este 22 Este 0 1007.2 -0.4 73
2020-03-15 19:00:00 16.9 13 Este 21 Este 0 1007.3 -0.2 68
2020-03-15 18:00:00 17.7 12 Este 26 Este 0 1007.3 -0.6 65
2020-03-15 17:00:00 18.6 16 Este 30 Nordeste 0 1007.6 -1.2 64
2020-03-15 16:00:00 20.5 15 Este 28 Nordeste 0 1007.5 -2.4 56
2020-03-15 15:00:00 20.8 18 Este 31 Nordeste 0 1007.9 -3.2 52
2020-03-15 14:00:00 20.8 15 Este 25 Nordeste 0 1008.8 -2.8 53
2020-03-15 13:00:00 19.8 10 Este 27 Este 0 1009.9 -2 57
2020-03-15 12:00:00 18.9 8 Este 17 Este 0 1011.1 -0.6 61
2020-03-15 11:00:00 17 6 Este 13 Este 0 1011.6 0.3 66
2020-03-15 10:00:00 16.9 7 Nordeste 13 Nordeste 0 1011.9 0.8 70
2020-03-15 09:00:00 15.1 4 Nordeste 8 Este 0 1011.7 0.8 81
2020-03-15 08:00:00 13.3 0 Calma 7 Sur 0 1011.3 0.2 90
2020-03-15 07:00:00 14.1 3 Sur 4 Sur 0 1011.1 -0.2 87
2020-03-15 06:00:00 13.9 4 Norte 5 Norte 0 1010.9 -1.2 89
2020-03-15 05:00:00 13.7 0 Calma 3 Noroeste 0 1011.1 -1.4 88
2020-03-15 04:00:00 14.2 3 Norte 6 Nordeste 0 1011.3 -1.4 89
2020-03-15 03:00:00 14.4 4 Nordeste 5 Nordeste 0 1012.1 -1 88
2020-03-15 02:00:00 14.3 4 Nordeste 8 Nordeste 0 1012.5 -0.8 89
2020-03-15 01:00:00 14 4 Nordeste 9 Nordeste 0 1012.7 -0.2 88
2020-03-15 00:00:00 12.9 5 Nordeste 10 Nordeste 0 1013.1 0.6 90
2020-03-14 23:00:00 13.7 8 Nordeste 17 Este 0 1013.3 1.5 88
2020-03-14 22:00:00 14.2 13 Nordeste 22 Nordeste 0 1012.9 1.5 87
2020-03-14 21:00:00 14.8 9 Nordeste 16 Este 0 1012.5 1.8 82
2020-03-14 20:00:00 16 9 Nordeste 17 Este 0 1011.8 1.3 76
2020-03-14 19:00:00 17.7 12 Este 26 Este 0 1011.4 0.7 69
2020-03-14 18:00:00 20.2 12 Este 24 Este 0 1010.7 -0.5 61
2020-03-14 17:00:00 22.3 9 Sudeste 21 Sudeste 0 1010.5 -1.5 54
2020-03-14 16:00:00 23.1 9 Sur 27 Sur 0 1010.7 -2.1 49
2020-03-14 15:00:00 23.3 8 Nordeste 19 Nordeste 0 1011.2 -2.2 49
2020-03-14 14:00:00 22.2 9 Este 19 Este 0 1012 -2 51
2020-03-14 13:00:00 20.8 8 Este 15 Este 0 1012.8 -1.1 56
2020-03-14 12:00:00 19.6 5 Este 17 Norte 0 1013.4 0.1 58
2020-03-14 11:00:00 18.1 4 Este 12 Nordeste 0 1014 1.2 67
2020-03-14 10:00:00 17.2 3 Este 6 Sudoeste 0 1013.9 1.5 66
2020-03-14 09:00:00 14.5 4 Sur 10 Noroeste 0 1013.3 1.2 74
2020-03-14 08:00:00 10.9 4 Noroeste 7 Noroeste 0 1012.8 1.2 87
2020-03-14 07:00:00 11.2 4 Sudoeste 7 Oeste 0 1012.4 0.9 84
2020-03-14 06:00:00 11.6 5 Oeste 6 Oeste 0 1012.1 0.3 84
2020-03-14 05:00:00 12.5 4 Oeste 8 Oeste 0 1011.6 -0.8 80
2020-03-14 04:00:00 13 5 Oeste 10 Oeste 0 1011.5 -1.2 78
2020-03-14 03:00:00 13.4 8 Oeste 12 Noroeste 0 1011.8 -0.8 77
2020-03-14 02:00:00 13 6 Noroeste 9 Noroeste 0 1012.4 -0.2 80
2020-03-14 01:00:00 13.2 4 Oeste 5 Oeste 0 1012.7 0.5 80
2020-03-14 00:00:00 14.2 3 Sudeste 9 Nordeste 0 1012.6 0.8 76
2020-03-13 23:00:00 14.4 4 Nordeste 10 Nordeste 0 1012.6 1.6 75
2020-03-13 22:00:00 15.7 6 Este 15 Este 0 1012.2 1.6 69
2020-03-13 21:00:00 16.3 9 Este 13 Este 0 1011.8 1.7 65
2020-03-13 20:00:00 16.7 8 Este 21 Este 0 1011 0.8 62
2020-03-13 19:00:00 17.3 12 Este 25 Este 0 1010.6 0.4 56
2020-03-13 18:00:00 18.2 17 Este 28 Este 0 1010.1 0.1 52
2020-03-13 17:00:00 20.2 17 Este 28 Este 0 1010.2 -0.1 45
2020-03-13 16:00:00 20.2 19 Nordeste 30 Nordeste 0 1010.2 -0.6 44
2020-03-13 15:00:00 21.6 21 Este 33 Este 0 1010 -1 39
2020-03-13 14:00:00 24 19 Este 29 Este 0 1010.3 -0.9 35
2020-03-13 13:00:00 24.1 6 Sudoeste 16 Sur 0 1010.8 -0.6 39
2020-03-13 12:00:00 22.9 4 Sur 12 Oeste 0 1011 0.1 39
2020-03-13 11:00:00 20.8 6 Noroeste 11 Noroeste 0 1011.2 0.8 44
2020-03-13 10:00:00 18.1 4 Sur 10 Sur 0 1011.4 1.8 54
2020-03-13 09:00:00 15.6 3 Noroeste 10 Noroeste 0 1010.9 1.8 65
2020-03-13 08:00:00 11.9 3 Norte 11 Noroeste 0 1010.4 1.5 75
2020-03-13 07:00:00 11.3 5 Norte 8 Noroeste 0 1009.6 0.8 75
2020-03-13 06:00:00 12.3 4 Noroeste 11 Oeste 0 1009.1 -0.1 72
2020-03-13 05:00:00 13.3 3 Sudoeste 9 Sudoeste 0 1008.9 -0.8 68
2020-03-13 04:00:00 12.4 4 Oeste 9 Sur 0 1008.8 -1.3 72
2020-03-13 03:00:00 13.4 6 Noroeste 12 Noroeste 0 1009.2 -1.1 68
2020-03-13 02:00:00 13.9 4 Sudoeste 8 Oeste 0 1009.7 -0.5 65
2020-03-13 01:00:00 13.4 5 Oeste 6 Noroeste 0 1010.1 0 66
2020-03-13 00:00:00 13.9 4 Oeste 5 Oeste 0 1010.3 0.5 64
2020-03-12 23:00:00 15.1 3 Oeste 5 Noroeste 0 1010.2 0.8 60
2020-03-12 22:00:00 17 4 Este 17 Nordeste 0 1010.1 1.1 53
2020-03-12 21:00:00 18.4 10 Nordeste 18 Nordeste 0 1009.8 1 48
2020-03-12 20:00:00 19.7 11 Nordeste 21 Nordeste 0 1009.4 0.7 42
2020-03-12 19:00:00 22 12 Nordeste 23 Nordeste 0 1009 -0.1 38
2020-03-12 18:00:00 24.8 14 Nordeste 26 Nordeste 0 1008.8 -1.3 36
2020-03-12 17:00:00 27 14 Nordeste 25 Nordeste 0 1008.7 -2.5 34
2020-03-12 16:00:00 28 13 Este 23 Nordeste 0 1009.1 -3.4 31
2020-03-12 15:00:00 28 8 Este 28 Este 0 1010.1 -3.1 31
2020-03-12 14:00:00 27.1 11 Nordeste 17 Nordeste 0 1011.2 -2.6 34
2020-03-12 13:00:00 25.8 7 Este 15 Este 0 1012.5 -1.4 36
2020-03-12 12:00:00 23.9 4 Este 10 Este 0 1013.2 -0.7 42
2020-03-12 11:00:00 21.2 3 Oeste 10 Noroeste 0 1013.8 0.1 47
2020-03-12 10:00:00 18.4 3 Sur 8 Sur 0 1013.9 0.4 55
2020-03-12 09:00:00 14.9 3 Sudoeste 10 Noroeste 0 1013.9 0.5 70
2020-03-12 08:00:00 12.5 5 Oeste 9 Oeste 0 1013.7 0.2 76
2020-03-12 07:00:00 11.3 5 Oeste 8 Noroeste 0 1013.5 -0.6 83
2020-03-12 06:00:00 11.4 2 Oeste 8 Oeste 0 1013.4 -1.2 81
2020-03-12 05:00:00 12.4 6 Oeste 9 Oeste 0 1013.5 -1.4 80
2020-03-12 04:00:00 12.2 3 Oeste 8 Oeste 0 1014.1 -1.1 82
2020-03-12 03:00:00 12.3 4 Oeste 6 Oeste 0 1014.6 -0.7 87
2020-03-12 02:00:00 12.1 3 Noroeste 5 Norte 0 1014.9 -0.3 84
2020-03-12 01:00:00 12.9 0 Calma 3 Noroeste 0 1015.2 0.1 80
2020-03-12 00:00:00 14.7 0 Calma 6 Nordeste 0 1015.3 0.6 74
2020-03-11 23:00:00 15.5 4 Nordeste 12 Nordeste 0 1015.2 1 73
2020-03-11 22:00:00 16.9 10 Nordeste 17 Nordeste 0 1015.1 1.5 68
2020-03-11 21:00:00 18.3 10 Nordeste 21 Nordeste 0 1014.7 1.6 64
2020-03-11 20:00:00 20.1 12 Nordeste 21 Nordeste 0 1014.2 1.7 56
2020-03-11 19:00:00 22.8 9 Nordeste 26 Nordeste 0 1013.6 0.9 47
2020-03-11 18:00:00 26.9 13 Nordeste 21 Sur 0 1013.1 -0.1 38
2020-03-11 17:00:00 30.1 11 Sudeste 24 Sudeste 0 1012.5 -1.6 29
2020-03-11 16:00:00 31.8 5 Sudeste 11 Sur 0 1012.7 -2.5 20
2020-03-11 15:00:00 31.2 3 Sur 13 Oeste 0 1013.2 -3 23
2020-03-11 14:00:00 30 4 Oeste 13 Oeste 0 1014.1 -2.6 26
2020-03-11 13:00:00 28.1 5 Sur 10 Sur 0 1015.2 -1.7 31
2020-03-11 12:00:00 25.4 4 Sudoeste 10 Sudoeste 0 1016.2 -0.5 37
2020-03-11 11:00:00 21.5 6 Sudoeste 11 Sur 0 1016.7 0.2 45
2020-03-11 10:00:00 18.4 5 Sudoeste 11 Sudoeste 0 1016.9 0.8 51
2020-03-11 09:00:00 14.9 5 Sudoeste 8 Sudoeste 0 1016.7 0.9 65
2020-03-11 08:00:00 12.3 6 Oeste 10 Sudoeste 0 1016.5 0.6 73
2020-03-11 07:00:00 11.1 6 Sur 9 Sur 0 1016.1 0.3 78
2020-03-11 06:00:00 11 4 Oeste 8 Sudoeste 0 1015.8 -0.6 79
2020-03-11 05:00:00 11.2 3 Oeste 10 Oeste 0 1015.9 -1.2 77
2020-03-11 04:00:00 12.1 4 Oeste 14 Oeste 0 1015.8 -1.8 74
2020-03-11 03:00:00 12.7 6 Oeste 12 Oeste 0 1016.4 -1.5 71
2020-03-11 02:00:00 13.3 5 Sudoeste 11 Sudoeste 0 1017.1 -1 67
2020-03-11 01:00:00 14.1 5 Sudoeste 12 Sudoeste 0 1017.6 -0.5 64
2020-03-11 00:00:00 15.1 5 Sudoeste 17 Sudoeste 0 1017.9 -0.1 59
2020-03-10 23:00:00 15.6 10 Sudoeste 20 Oeste 0 1018.1 0.4 57
2020-03-10 22:00:00 16.2 12 Oeste 19 Oeste 0 1018.1 0.8 56
2020-03-10 21:00:00 17 9 Sudoeste 17 Sudoeste 0 1018 1.2 54
2020-03-10 20:00:00 17.9 6 Sur 17 Sudoeste 0 1017.7 1.4 52
2020-03-10 19:00:00 20.1 9 Sudoeste 20 Sudoeste 0 1017.3 0.8 46
2020-03-10 18:00:00 21.4 10 Sudoeste 25 Sudoeste 0 1016.8 -0.1 43
2020-03-10 17:00:00 23.4 11 Sur 26 Sur 0 1016.3 -1.4 41
2020-03-10 16:00:00 25.3 7 Sur 15 Sur 0 1016.5 -2.3 30
2020-03-10 15:00:00 25 6 Sudeste 16 Este 0 1016.9 -2.6 26
2020-03-10 14:00:00 24 8 Este 15 Este 0 1017.7 -2 28
2020-03-10 13:00:00 22.6 8 Sudeste 17 Sudeste 0 1018.8 -0.9 29
2020-03-10 12:00:00 21.4 7 Oeste 15 Noroeste 0 1019.5 0.4 31
2020-03-10 11:00:00 19.7 6 Noroeste 18 Noroeste 0 1019.7 1.3 32
2020-03-10 10:00:00 18.3 12 Noroeste 19 Norte 0 1019.7 2.4 36
2020-03-10 09:00:00 16 3 Sudeste 9 Noroeste 0 1019.1 2.3 43
2020-03-10 08:00:00 14.6 8 Noroeste 16 Noroeste 0 1018.4 2 43
2020-03-10 07:00:00 13.1 8 Noroeste 13 Noroeste 0 1017.3 0.9 45
2020-03-10 06:00:00 14.7 8 Noroeste 27 Norte 0 1016.8 0.8 40
2020-03-10 05:00:00 15 13 Noroeste 25 Norte 0 1016.4 0.7 38
2020-03-10 04:00:00 15.2 15 Norte 24 Noroeste 0 1016.4 0.5 37
2020-03-10 03:00:00 16.6 13 Norte 33 Noroeste 0 1016 0.1 33
2020-03-10 02:00:00 17.8 18 Noroeste 42 Noroeste 0 1015.7 0.1 31
2020-03-10 01:00:00 18.4 20 Noroeste 41 Norte 0 1015.9 0.8 30
2020-03-10 00:00:00 16.7 9 Oeste 15 Noroeste 0 1015.9 1.3 35
2020-03-09 23:00:00 18 4 Sur 21 Noroeste 0 1015.6 1.7 35
2020-03-09 22:00:00 18.9 11 Noroeste 28 Noroeste 0 1015.1 2.2 30
2020-03-09 21:00:00 20 14 Noroeste 30 Noroeste 0 1014.6 1.8 27
2020-03-09 20:00:00 21 7 Noroeste 34 Noroeste 0 1013.9 1.5 25
2020-03-09 19:00:00 23.1 20 Noroeste 31 Norte 0 1012.9 -0.3 22
2020-03-09 18:00:00 24.9 18 Noroeste 29 Norte 0 1012.8 -1.6 19
2020-03-09 17:00:00 24.4 14 Noroeste 28 Noroeste 0 1012.4 -3.3 23
2020-03-09 16:00:00 25.4 16 Noroeste 29 Noroeste 0 1013.2 -3.5 21
2020-03-09 15:00:00 23.9 14 Oeste 35 Noroeste 0 1014.4 -2.7 26
2020-03-09 14:00:00 22.1 11 Noroeste 35 Noroeste 0 1015.7 -1.4 31
2020-03-09 13:00:00 20.1 23 Noroeste 39 Norte 0 1016.7 -0.2 35
2020-03-09 12:00:00 19.4 17 Noroeste 29 Noroeste 0 1017.1 0.3 38
2020-03-09 11:00:00 18.9 19 Noroeste 33 Noroeste 0 1017.1 1.1 39
2020-03-09 10:00:00 17.9 21 Noroeste 31 Norte 0 1016.9 1.3 43
2020-03-09 09:00:00 16.6 7 Noroeste 20 Oeste 0 1016.8 1.9 48
2020-03-09 08:00:00 15.7 16 Oeste 28 Noroeste 0 1016 1.5 49
2020-03-09 07:00:00 15.9 12 Oeste 41 Noroeste 0 1015.6 1.3 47
2020-03-09 06:00:00 16.2 21 Noroeste 35 Oeste 0 1014.9 0.3 46
2020-03-09 05:00:00 15.6 7 Noroeste 20 Oeste 0 1014.5 -0.4 45
2020-03-09 04:00:00 17.9 13 Oeste 38 Noroeste 0 1014.3 -0.4 37
2020-03-09 03:00:00 12.9 3 Norte 15 Noroeste 0 1014.6 -0.5 57
2020-03-09 02:00:00 17.3 11 Noroeste 21 Oeste 0 1014.9 -0.1 35
2020-03-09 01:00:00 14.7 8 Oeste 14 Oeste 0 1014.7 -0.1 55
2020-03-09 00:00:00 15 3 Noroeste 10 Sur 0 1015.1 0.2 65
2020-03-08 23:00:00 15.3 2 Sur 8 Sur 0 1015 0.4 65
2020-03-08 22:00:00 14.9 3 Sudoeste 8 Sudoeste 0 1014.8 0.9 63
2020-03-08 21:00:00 17.2 4 Sudoeste 17 Sudoeste 0 1014.9 1.4 54
2020-03-08 20:00:00 18.6 8 Sudoeste 18 Sudoeste 0 1014.6 1 47
2020-03-08 19:00:00 20.6 10 Sudoeste 20 Sur 0 1013.9 -0.1 40
2020-03-08 18:00:00 23 10 Sudoeste 23 Sudoeste 0 1013.5 -1.3 31
2020-03-08 17:00:00 24.5 13 Sudoeste 22 Sudoeste 0 1013.6 -2.3 27
2020-03-08 16:00:00 25.1 5 Sur 15 Sudoeste 0 1014 -3.1 24
2020-03-08 15:00:00 24.1 4 Sur 19 Sudoeste 0 1014.8 -3.2 26
2020-03-08 14:00:00 22.7 7 Oeste 25 Oeste 0 1015.9 -2.4 25
2020-03-08 13:00:00 21.2 6 Sudoeste 17 Noroeste 0 1017.1 -1.4 31
2020-03-08 12:00:00 20 8 Oeste 19 Noroeste 0 1018 -0.3 36
2020-03-08 11:00:00 18.2 10 Oeste 21 Oeste 0 1018.3 0.5 37
2020-03-08 10:00:00 16.3 8 Oeste 21 Oeste 0 1018.5 1.3 43
2020-03-08 09:00:00 13.3 9 Oeste 19 Oeste 0 1018.3 1.5 51
2020-03-08 08:00:00 11.3 11 Oeste 17 Oeste 0 1017.8 1.4 57
2020-03-08 07:00:00 8.1 8 Sur 15 Noroeste 0 1017.2 0.4 72
2020-03-08 06:00:00 7 2 Sudoeste 10 Oeste 0 1016.8 -0.4 77
2020-03-08 05:00:00 7.3 5 Sudoeste 9 Sur 0 1016.4 -1 79
2020-03-08 04:00:00 7.8 2 Oeste 8 Sudoeste 0 1016.8 -0.9 79
2020-03-08 03:00:00 8 0 Calma 10 Oeste 0 1017.2 -0.5 78
2020-03-08 02:00:00 9.3 6 Noroeste 13 Sur 0 1017.4 -0.2 72
2020-03-08 01:00:00 9 4 Noroeste 6 Norte 0 1017.7 0.6 71
2020-03-08 00:00:00 10.2 3 Noroeste 6 Oeste 0 1017.7 1.1 68
2020-03-07 23:00:00 11.1 3 Noroeste 6 Noroeste 0 1017.6 1.9 62
2020-03-07 22:00:00 13.6 5 Nordeste 8 Nordeste 0 1017.1 2.1 52
2020-03-07 21:00:00 14.9 5 Nordeste 13 Este 0 1016.6 2.1 47
2020-03-07 20:00:00 16.3 5 Noroeste 11 Noroeste 0 1015.7 1.3 40
2020-03-07 19:00:00 18.4 8 Noroeste 30 Oeste 0 1015 0.4 34
2020-03-07 18:00:00 20.2 15 Noroeste 28 Noroeste 0 1014.5 -0.1 30
2020-03-07 17:00:00 20.9 15 Noroeste 31 Noroeste 0 1014.4 -0.9 28
2020-03-07 16:00:00 20.3 17 Norte 42 Norte 0 1014.6 -1.7 28
2020-03-07 15:00:00 19.9 26 Noroeste 44 Noroeste 0 1014.6 -2.5 28
2020-03-07 14:00:00 19.4 26 Noroeste 42 Noroeste 0 1015.3 -2.1 28
2020-03-07 13:00:00 18.3 23 Noroeste 45 Noroeste 0 1016.3 -1.3 30
2020-03-07 12:00:00 17.5 21 Noroeste 43 Norte 0 1017.1 0.1 30
2020-03-07 11:00:00 15.3 22 Noroeste 43 Noroeste 0 1017.4 0.9 32
2020-03-07 10:00:00 13.4 24 Noroeste 42 Noroeste 0 1017.6 1.5 35
2020-03-07 09:00:00 12.3 24 Noroeste 39 Noroeste 0 1017 0.7 38
2020-03-07 08:00:00 10.8 14 Noroeste 40 Oeste 0 1016.5 0.2 42
2020-03-07 07:00:00 10.5 25 Noroeste 38 Noroeste 0 1016.1 -0.1 40
2020-03-07 06:00:00 10.3 6 Oeste 16 Sur 0 1016.3 0.5 43
2020-03-07 05:00:00 11.1 6 Sur 21 Oeste 0 1016.3 0.4 38
2020-03-07 04:00:00 11.5 12 Oeste 24 Noroeste 0 1016.2 0.4 37
2020-03-07 03:00:00 11.2 11 Oeste 18 Noroeste 0 1015.8 0.4 38
2020-03-07 02:00:00 9.5 6 Noroeste 11 Noroeste 0 1015.9 1 45
2020-03-07 01:00:00 11 9 Noroeste 13 Noroeste 0 1015.8 1.4 39
2020-03-07 00:00:00 9.9 6 Noroeste 10 Norte 0 1015.4 2 44
2020-03-06 23:00:00 11.3 8 Noroeste 11 Noroeste 0 1014.9 2.7 40
2020-03-06 22:00:00 13.6 6 Noroeste 23 Noroeste 0 1014.4 3.4 34
2020-03-06 21:00:00 15.1 14 Noroeste 36 Noroeste 0 1013.4 3.5 29
2020-03-06 20:00:00 15.7 17 Noroeste 38 Noroeste 0 1012.2 3 26
2020-03-06 19:00:00 16.7 24 Noroeste 45 Noroeste 0 1011 2.3 24
2020-03-06 18:00:00 17.6 23 Noroeste 52 Noroeste 0 1009.9 1.1 25
2020-03-06 17:00:00 18.6 31 Noroeste 55 Noroeste 0 1009.2 0.1 22
2020-03-06 16:00:00 18.7 24 Noroeste 51 Noroeste 0 1008.7 -0.9 26
2020-03-06 15:00:00 18.9 25 Oeste 51 Oeste 0 1008.8 -0.6 28
2020-03-06 14:00:00 19 30 Oeste 55 Oeste 0 1009.1 -0.6 30
2020-03-06 13:00:00 18.8 32 Oeste 54 Oeste 0 1009.6 0 31
2020-03-06 12:00:00 18.5 24 Noroeste 50 Noroeste 0 1009.4 -0.3 35
2020-03-06 11:00:00 17.7 23 Noroeste 37 Noroeste 0 1009.7 0.4 35
2020-03-06 10:00:00 16 14 Oeste 22 Oeste 0 1009.6 0.5 38
2020-03-06 09:00:00 13.7 13 Sudoeste 23 Noroeste 0 1009.7 0.9 45
2020-03-06 08:00:00 13.1 14 Oeste 22 Noroeste 0 1009.3 1.1 45
2020-03-06 07:00:00 11 6 Noroeste 13 Oeste 0 1009.1 1.3 53
2020-03-06 06:00:00 13.5 8 Oeste 20 Oeste 0 1008.8 1.3 43
2020-03-06 05:00:00 14 9 Oeste 22 Noroeste 0 1008.2 0.6 47
2020-03-06 04:00:00 12.5 7 Oeste 13 Oeste 0 1007.8 0.3 51
2020-03-06 03:00:00 13.5 5 Sudoeste 13 Oeste 0 1007.5 0.2 49
2020-03-06 02:00:00 15.8 9 Oeste 20 Oeste 0 1007.6 1 41
2020-03-06 01:00:00 16.4 12 Oeste 32 Noroeste 0 1007.5 0.9 39
2020-03-06 00:00:00 16.5 12 Oeste 32 Oeste 0 1007.3 1.6 41
2020-03-05 23:00:00 17.4 14 Oeste 22 Sudoeste 0 1006.6 1.4 39
2020-03-05 22:00:00 18 9 Oeste 25 Oeste 0 1006.6 2.7 38
2020-03-05 21:00:00 18.8 13 Oeste 34 Noroeste 0 1005.7 3 37
2020-03-05 20:00:00 19.8 22 Oeste 46 Noroeste 0 1005.2 3.1 34
2020-03-05 19:00:00 21 24 Noroeste 45 Noroeste 0 1003.9 2.2 30
2020-03-05 18:00:00 22.2 19 Oeste 40 Norte 0 1002.7 1.1 38
2020-03-05 17:00:00 23.1 22 Noroeste 38 Noroeste 0 1002.1 -0.9 40
2020-03-05 16:00:00 26.3 20 Noroeste 33 Noroeste 0 1001.7 -2.4 33
2020-03-05 15:00:00 26.2 7 Sur 21 Oeste 0 1001.6 -4 30
2020-03-05 14:00:00 24.9 11 Oeste 20 Oeste 0 1003 -2.8 32
2020-03-05 13:00:00 24 9 Oeste 21 Sudoeste 0 1004.1 -2.3 35
2020-03-05 12:00:00 22 10 Sudoeste 21 Sudoeste 0 1005.6 -1.2 40
2020-03-05 11:00:00 20 7 Sudoeste 14 Sudoeste 0 1005.8 -1 45
2020-03-05 10:00:00 17.9 8 Sudoeste 14 Sudoeste 0 1006.4 -0.6 49
2020-03-05 09:00:00 14.2 5 Sudoeste 11 Sudoeste 0 1006.8 -1 62
2020-03-05 08:00:00 10.2 2 Sur 6 Sur 0 1006.8 -1.1 78
2020-03-05 07:00:00 10.8 2 Sudoeste 10 Oeste 0 1007 -1.4 74
2020-03-05 06:00:00 11.7 6 Oeste 10 Oeste 0 1007.8 -1.5 71
2020-03-05 05:00:00 11.4 4 Sudoeste 12 Sudoeste 0 1007.9 -1.8 73
2020-03-05 04:00:00 13.2 7 Sudoeste 13 Sudoeste 0 1008.4 -1.9 66
2020-03-05 03:00:00 13.8 6 Sudoeste 12 Sudoeste 0 1009.3 -1.5 64
2020-03-05 02:00:00 15.2 5 Sudoeste 14 Oeste 0 1009.7 -1.3 59
2020-03-05 01:00:00 16.5 8 Oeste 16 Sudoeste 0 1010.3 -0.7 54
2020-03-05 00:00:00 17.5 8 Oeste 23 Noroeste 0 1010.8 -0.1 50
2020-03-04 23:00:00 17.6 12 Oeste 22 Noroeste 0 1011 0.3 50
2020-03-04 22:00:00 17 5 Noroeste 16 Noroeste 0 1011 0.9 52
2020-03-04 21:00:00 18.6 8 Noroeste 26 Noroeste 0 1010.9 1.6 47
2020-03-04 20:00:00 20.2 14 Noroeste 32 Noroeste 0 1010.7 1.3 43
2020-03-04 19:00:00 21.9 15 Noroeste 24 Norte 0 1010.1 0.3 40
2020-03-04 18:00:00 24 13 Norte 24 Norte 0 1009.3 -1.4 37
2020-03-04 17:00:00 25.3 13 Noroeste 23 Noroeste 0 1009.4 -2.1 36
2020-03-04 16:00:00 26.9 6 Sudoeste 15 Oeste 0 1009.8 -2.6 36
2020-03-04 15:00:00 26.7 7 Sudeste 15 Noroeste 0 1010.7 -2.4 36
2020-03-04 14:00:00 24.6 8 Noroeste 19 Norte 0 1011.5 -1.5 41
2020-03-04 13:00:00 24 10 Norte 28 Noroeste 0 1012.4 -0.9 43
2020-03-04 12:00:00 22.6 17 Noroeste 40 Norte 0 1013.1 0.3 46
2020-03-04 11:00:00 21.8 24 Noroeste 38 Noroeste 0 1013 0.8 48
2020-03-04 10:00:00 19.6 14 Oeste 28 Noroeste 0 1013.3 1.4 55
2020-03-04 09:00:00 17.6 15 Oeste 27 Noroeste 0 1012.8 1.2 60
2020-03-04 08:00:00 14.2 10 Sudoeste 20 Oeste 0 1012.2 0.7 69
2020-03-04 07:00:00 14.8 12 Oeste 19 Oeste 0 1011.9 0.3 67
2020-03-04 06:00:00 12.8 7 Oeste 14 Noroeste 0 1011.6 0.1 76
2020-03-04 05:00:00 11.6 3 Sur 8 Oeste 0 1011.5 0 77
2020-03-04 04:00:00 12 0 Calma 10 Noroeste 0 1011.6 0.3 75
2020-03-04 03:00:00 12.3 3 Sudoeste 11 Nordeste 0 1011.5 0.5 74
2020-03-04 02:00:00 13.2 4 Oeste 9 Sudoeste 0 1011.5 0.9 71
2020-03-04 01:00:00 13.6 5 Oeste 9 Sur 0 1011.3 1.2 69
2020-03-04 00:00:00 14.4 4 Oeste 7 Noroeste 0 1011 0.9 66
2020-03-03 23:00:00 15.9 5 Oeste 20 Oeste 0 1010.6 1.4 59
2020-03-03 22:00:00 18 11 Oeste 19 Oeste 0 1010.1 1.5 52
2020-03-03 21:00:00 18 4 Oeste 21 Oeste 0 1010.1 2.2 50
2020-03-03 20:00:00 19.3 13 Oeste 30 Noroeste 0 1009.2 2.3 45
2020-03-03 19:00:00 19.7 12 Noroeste 35 Noroeste 0 1008.6 2 44
2020-03-03 18:00:00 21.5 21 Noroeste 39 Noroeste 0 1007.9 1.1 38
2020-03-03 17:00:00 22.9 21 Noroeste 44 Noroeste 0 1006.9 -0.8 35
2020-03-03 16:00:00 24.5 6 Noroeste 17 Noroeste 0 1006.6 -2.7 29
2020-03-03 15:00:00 23.4 5 Oeste 16 Sur 0 1006.8 -3.6 28
2020-03-03 14:00:00 22.3 9 Sur 18 Sudoeste 0 1007.7 -3.5 29
2020-03-03 13:00:00 20.9 8 Sudoeste 15 Sudoeste 0 1009.3 -2.3 30
2020-03-03 12:00:00 18.7 4 Sudoeste 10 Sudoeste 0 1010.4 -0.9 37
2020-03-03 11:00:00 16.6 4 Sudeste 11 Oeste 0 1011.2 -0.7 43
2020-03-03 10:00:00 12.3 5 Sudoeste 9 Oeste 0 1011.6 -0.2 54
2020-03-03 09:00:00 9.5 3 Oeste 10 Oeste 0 1011.3 0 66
2020-03-03 08:00:00 8.3 3 Sudoeste 9 Oeste 0 1011.9 1 66
2020-03-03 07:00:00 7.6 4 Oeste 8 Oeste 0 1011.8 0.6 71
2020-03-03 06:00:00 7.8 3 Oeste 7 Noroeste 0 1011.3 0.2 69
2020-03-03 05:00:00 8.2 4 Norte 9 Oeste 0 1010.9 -0.4 66
2020-03-03 04:00:00 11.3 3 Sudoeste 10 Sur 0 1011.2 -0.1 54
2020-03-03 03:00:00 12.8 10 Noroeste 22 Noroeste 0 1011.1 0.2 47
2020-03-03 02:00:00 14.1 12 Oeste 26 Noroeste 0 1011.3 0.1 41
2020-03-03 01:00:00 13.1 5 Sudeste 28 Norte 0 1011.3 0.5 45
2020-03-03 00:00:00 13.8 15 Noroeste 30 Noroeste 0 1010.9 1.6 40